createdAt,value
2023-05-24T00:01:50.610Z,100321.04
2023-05-24T00:04:19.394Z,100323.91
2023-05-24T00:06:47.944Z,100323.80
2023-05-24T00:09:16.397Z,100320.27
2023-05-24T00:11:44.754Z,100321.27
2023-05-24T00:14:13.253Z,100320.21
2023-05-24T00:16:41.785Z,100315.27
2023-05-24T00:19:10.756Z,100314.89
2023-05-24T00:21:39.166Z,100317.48
2023-05-24T00:24:07.671Z,100309.54
2023-05-24T00:26:36.438Z,100305.18
2023-05-24T00:29:05.020Z,100304.61
2023-05-24T00:31:33.573Z,100305.27
2023-05-24T00:34:01.922Z,100304.98
2023-05-24T00:36:30.594Z,100303.17
2023-05-24T00:38:59.121Z,100304.49
2023-05-24T00:41:27.518Z,100298.80
2023-05-24T00:43:56.045Z,100302.73
2023-05-24T00:46:28.957Z,100304.93
2023-05-24T00:48:57.657Z,100298.66
2023-05-24T00:51:27.312Z,100298.31
2023-05-24T00:53:56.402Z,100295.70
2023-05-24T00:56:26.094Z,100290.99
2023-05-24T00:58:55.376Z,100292.15
2023-05-24T01:01:25.345Z,100289.11
2023-05-24T01:03:54.857Z,100294.77
2023-05-24T01:06:26.611Z,100296.42
2023-05-24T01:09:09.460Z,100291.23
2023-05-24T01:11:48.424Z,100292.53
2023-05-24T01:14:23.228Z,100290.83
2023-05-24T01:16:57.586Z,100292.23
2023-05-24T01:19:42.711Z,100290.45
2023-05-24T01:22:25.095Z,100298.29
2023-05-24T01:25:02.940Z,100293.83
2023-05-24T01:27:33.386Z,100294.70
2023-05-24T01:30:03.600Z,100295.39
2023-05-24T01:32:32.553Z,100299.61
2023-05-24T01:35:01.052Z,100302.23
2023-05-24T01:37:29.396Z,100302.94
2023-05-24T01:39:57.809Z,100301.64
2023-05-24T01:42:34.102Z,100301.96
2023-05-24T01:45:08.902Z,100299.66
2023-05-24T01:47:47.172Z,100302.63
2023-05-24T01:50:20.391Z,100301.61
2023-05-24T01:52:50.588Z,100303.64
2023-05-24T01:55:19.294Z,100305.55
2023-05-24T01:57:48.896Z,100307.83
2023-05-24T02:00:19.424Z,100307.76
2023-05-24T02:02:48.079Z,100309.65
2023-05-24T02:05:19.404Z,100308.14
2023-05-24T02:07:47.821Z,100309.77
2023-05-24T02:10:16.181Z,100313.88
2023-05-24T02:12:44.691Z,100315.02
2023-05-24T02:15:14.218Z,100314.23
2023-05-24T02:17:42.782Z,100314.59
2023-05-24T02:20:13.153Z,100316.77
2023-05-24T02:22:41.607Z,100318.20
2023-05-24T02:25:10.419Z,100317.77
2023-05-24T02:27:38.788Z,100319.42
2023-05-24T02:30:10.088Z,100318.50
2023-05-24T02:32:38.614Z,100322.59
2023-05-24T02:35:07.757Z,100321.48
2023-05-24T02:37:36.607Z,100319.73
2023-05-24T02:40:07.351Z,100319.73
2023-05-24T02:42:35.742Z,100317.40
2023-05-24T02:45:05.178Z,100320.85
2023-05-24T02:47:33.476Z,100317.11
2023-05-24T02:50:01.926Z,100317.46
2023-05-24T02:52:30.475Z,100317.30
2023-05-24T02:54:59.185Z,100318.38
2023-05-24T02:57:28.465Z,100316.55
2023-05-24T02:59:57.328Z,100316.88
2023-05-24T03:02:27.930Z,100316.50
2023-05-24T03:04:56.517Z,100319.13
2023-05-24T03:07:25.097Z,100312.92
2023-05-24T03:09:53.699Z,100323.13
2023-05-24T03:12:23.061Z,100321.15
2023-05-24T03:14:52.500Z,100324.58
2023-05-24T03:17:21.239Z,100327.59
2023-05-24T03:19:51.899Z,100324.59
2023-05-24T03:22:20.415Z,100325.98
2023-05-24T03:24:49.685Z,100326.30
2023-05-24T03:27:18.446Z,100331.64
2023-05-24T03:29:46.951Z,100334.53
2023-05-24T03:32:16.420Z,100334.73
2023-05-24T03:34:45.345Z,100334.45
2023-05-24T03:37:15.165Z,100331.56
2023-05-24T03:39:44.808Z,100328.52
2023-05-24T03:42:36.042Z,100331.83
2023-05-24T03:45:06.925Z,100329.95
2023-05-24T03:47:35.476Z,100329.83
2023-05-24T03:50:05.743Z,100335.18
2023-05-24T03:52:34.202Z,100336.98
2023-05-24T03:55:02.759Z,100336.89
2023-05-24T03:57:31.498Z,100340.92
2023-05-24T04:00:00.356Z,100342.36
2023-05-24T04:02:29.468Z,100342.45
2023-05-24T04:04:58.108Z,100344.27
2023-05-24T04:07:27.935Z,100347.33
2023-05-24T04:09:56.556Z,100351.08
2023-05-24T04:12:25.156Z,100349.20
2023-05-24T04:14:53.761Z,100348.56
2023-05-24T04:17:24.109Z,100350.23
2023-05-24T04:19:52.928Z,100349.12
2023-05-24T04:22:23.742Z,100356.35
2023-05-24T04:24:54.189Z,100358.45
2023-05-24T04:27:25.586Z,100364.16
2023-05-24T04:29:54.458Z,100366.59
2023-05-24T04:32:23.351Z,100370.04
2023-05-24T04:34:52.484Z,100370.90
2023-05-24T04:37:21.340Z,100372.59
2023-05-24T04:39:51.006Z,100381.33
2023-05-24T04:42:19.602Z,100380.90
2023-05-24T04:44:48.119Z,100382.80
2023-05-24T04:47:17.011Z,100382.56
2023-05-24T04:49:45.617Z,100380.52
2023-05-24T04:52:14.382Z,100379.60
2023-05-24T04:54:43.038Z,100383.80
2023-05-24T04:57:11.633Z,100385.31
2023-05-24T04:59:40.085Z,100381.35
2023-05-24T05:02:08.808Z,100383.83
2023-05-24T05:04:37.467Z,100384.03
2023-05-24T05:07:06.619Z,100389.33
2023-05-24T05:09:35.297Z,100390.73
2023-05-24T05:12:04.243Z,100393.77
2023-05-24T05:14:32.969Z,100397.33
2023-05-24T05:17:01.521Z,100399.22
2023-05-24T05:19:34.096Z,100400.13
2023-05-24T05:22:03.279Z,100401.58
2023-05-24T05:24:31.846Z,100397.77
2023-05-24T05:27:00.527Z,100398.06
2023-05-24T05:29:29.251Z,100399.07
2023-05-24T05:31:57.844Z,100399.95
2023-05-24T05:34:26.346Z,100397.07
2023-05-24T05:36:54.836Z,100396.63
2023-05-24T05:39:23.352Z,100397.79
2023-05-24T05:41:51.909Z,100400.92
2023-05-24T05:44:20.590Z,100399.05
2023-05-24T05:46:49.042Z,100400.20
2023-05-24T05:49:17.954Z,100399.45
2023-05-24T05:51:46.776Z,100399.79
2023-05-24T05:54:17.697Z,100402.38
2023-05-24T05:56:47.363Z,100402.69
2023-05-24T05:59:16.299Z,100409.71
2023-05-24T06:01:46.828Z,100416.95
2023-05-24T06:04:15.769Z,100420.63
2023-05-24T06:06:48.749Z,100422.81
2023-05-24T06:09:17.255Z,100420.77
2023-05-24T06:11:45.850Z,100424.19
2023-05-24T06:14:17.587Z,100423.52
2023-05-24T06:16:47.327Z,100426.91
2023-05-24T06:19:16.297Z,100424.36
2023-05-24T06:21:47.274Z,100428.09
2023-05-24T06:24:19.667Z,100428.44
2023-05-24T06:26:48.414Z,100439.07
2023-05-24T06:29:19.071Z,100440.55
2023-05-24T06:31:47.947Z,100436.01
2023-05-24T06:34:18.236Z,100431.22
2023-05-24T06:36:47.878Z,100434.79
2023-05-24T06:39:17.159Z,100441.99
2023-05-24T06:41:46.477Z,100442.27
2023-05-24T06:44:15.764Z,100441.94
2023-05-24T06:46:44.521Z,100438.11
2023-05-24T06:49:13.377Z,100446.23
2023-05-24T06:51:41.972Z,100446.68
2023-05-24T06:54:10.497Z,100445.54
2023-05-24T06:56:39.299Z,100449.95
2023-05-24T06:59:08.177Z,100449.58
2023-05-24T07:01:39.140Z,100445.32
2023-05-24T07:04:07.892Z,100445.08
2023-05-24T07:06:37.287Z,100444.92
2023-05-24T07:09:06.042Z,100447.16
2023-05-24T07:11:35.025Z,100446.85
2023-05-24T07:14:03.639Z,100451.27
2023-05-24T07:16:32.125Z,100454.88
2023-05-24T07:19:03.180Z,100451.70
2023-05-24T07:21:33.173Z,100458.56
2023-05-24T07:24:03.305Z,100461.89
2023-05-24T07:26:31.884Z,100463.65
2023-05-24T07:29:00.498Z,100468.63
2023-05-24T07:31:30.779Z,100471.41
2023-05-24T07:33:59.608Z,100472.38
2023-05-24T07:39:03.215Z,100478.22
2023-05-24T07:41:32.685Z,100476.59
2023-05-24T07:44:01.100Z,100479.58
2023-05-24T07:46:29.514Z,100477.83
2023-05-24T07:48:58.025Z,100480.48
2023-05-24T07:51:26.369Z,100484.09
2023-05-24T07:53:55.319Z,100485.44
2023-05-24T07:56:24.153Z,100492.97
2023-05-24T07:58:56.214Z,100489.29
2023-05-24T08:01:24.793Z,100495.36
2023-05-24T08:03:53.304Z,100495.96
2023-05-24T08:06:23.435Z,100499.63
2023-05-24T08:08:51.946Z,100505.21
2023-05-24T08:11:20.434Z,100507.45
2023-05-24T08:13:48.877Z,100508.51
2023-05-24T08:16:18.007Z,100508.85
2023-05-24T08:18:46.449Z,100513.88
2023-05-24T08:21:15.001Z,100514.52
2023-05-24T08:23:44.513Z,100515.69
2023-05-24T08:26:13.292Z,100520.22
2023-05-24T08:28:42.397Z,100521.58
2023-05-24T08:31:10.855Z,100520.73
2023-05-24T08:33:39.715Z,100521.52
2023-05-24T08:36:08.663Z,100518.70
2023-05-24T08:38:37.060Z,100521.29
2023-05-24T08:41:07.127Z,100522.32
2023-05-24T08:43:35.712Z,100520.55
2023-05-24T08:46:05.453Z,100523.16
2023-05-24T08:48:35.415Z,100526.75
2023-05-24T08:51:04.253Z,100527.45
2023-05-24T08:53:33.192Z,100531.20
2023-05-24T08:56:01.533Z,100532.51
2023-05-24T08:58:31.358Z,100533.38
2023-05-24T09:01:01.493Z,100530.81
2023-05-24T09:03:35.383Z,100529.91
2023-05-24T09:06:04.766Z,100531.73
2023-05-24T09:08:34.539Z,100531.84
2023-05-24T09:11:03.667Z,100535.34
2023-05-24T09:13:32.095Z,100533.34
2023-05-24T09:16:00.719Z,100530.48
2023-05-24T09:18:29.435Z,100537.44
2023-05-24T09:20:57.998Z,100535.05
2023-05-24T09:23:26.711Z,100537.65
2023-05-24T09:25:55.440Z,100540.21
2023-05-24T09:28:24.412Z,100538.70
2023-05-24T09:31:00.974Z,100546.27
2023-05-24T09:33:32.870Z,100546.91
2023-05-24T09:36:02.733Z,100548.39
2023-05-24T09:38:31.332Z,100548.59
2023-05-24T09:41:01.698Z,100546.73
2023-05-24T09:43:31.104Z,100552.85
2023-05-24T09:45:59.965Z,100556.81
2023-05-24T09:48:29.176Z,100556.66
2023-05-24T09:51:09.069Z,100557.80
2023-05-24T09:53:38.035Z,100553.48
2023-05-24T09:56:07.918Z,100553.27
2023-05-24T09:58:36.502Z,100551.78
2023-05-24T10:01:07.148Z,100551.29
2023-05-24T10:03:36.886Z,100552.31
2023-05-24T10:06:06.938Z,100555.73
2023-05-24T10:08:35.951Z,100558.41
2023-05-24T10:11:04.638Z,100555.04
2023-05-24T10:13:35.147Z,100546.56
2023-05-24T10:16:04.450Z,100543.55
2023-05-24T10:18:32.947Z,100541.55
2023-05-24T10:21:02.187Z,100548.20
2023-05-24T10:23:31.911Z,100546.61
2023-05-24T10:26:06.164Z,100539.10
2023-05-24T10:28:36.270Z,100539.44
2023-05-24T10:31:10.487Z,100548.98
2023-05-24T10:33:39.798Z,100551.26
2023-05-24T10:36:10.491Z,100553.01
2023-05-24T10:38:40.123Z,100546.19
2023-05-24T10:41:08.940Z,100551.39
2023-05-24T10:43:37.722Z,100554.15
2023-05-24T10:46:09.434Z,100557.48
2023-05-24T10:48:40.055Z,100558.89
2023-05-24T10:51:39.055Z,100564.33
2023-05-24T10:54:17.655Z,100567.52
2023-05-24T10:56:47.503Z,100567.34
2023-05-24T10:59:30.950Z,100568.95
2023-05-24T11:02:00.288Z,100570.21
2023-05-24T11:04:31.679Z,100573.54
2023-05-24T11:07:03.914Z,100574.45
2023-05-24T11:09:33.147Z,100575.39
2023-05-24T11:12:03.723Z,100576.77
2023-05-24T11:14:32.255Z,100577.81
2023-05-24T11:17:01.454Z,100581.52
2023-05-24T11:19:34.567Z,100582.52
2023-05-24T11:22:04.537Z,100584.83
2023-05-24T11:24:33.502Z,100582.00
2023-05-24T11:27:03.874Z,100580.74
2023-05-24T11:29:33.572Z,100581.27
2023-05-24T11:32:04.181Z,100578.52
2023-05-24T11:34:33.203Z,100582.06
2023-05-24T11:37:02.643Z,100581.27
2023-05-24T11:39:31.850Z,100577.20
2023-05-24T11:42:00.764Z,100580.18
2023-05-24T11:44:31.348Z,100580.94
2023-05-24T11:47:00.357Z,100580.33
2023-05-24T11:49:29.346Z,100583.38
2023-05-24T11:51:58.764Z,100582.72
2023-05-24T11:54:28.141Z,100582.11
2023-05-24T11:56:56.827Z,100586.77
2023-05-24T11:59:25.919Z,100585.70
2023-05-24T12:02:05.026Z,100586.52
2023-05-24T12:04:34.587Z,100593.52
2023-05-24T12:07:03.507Z,100595.82
2023-05-24T12:09:32.193Z,100593.80
2023-05-24T12:12:01.340Z,100591.73
2023-05-24T12:14:31.452Z,100596.47
2023-05-24T12:17:00.628Z,100598.08
2023-05-24T12:19:34.173Z,100601.70
2023-05-24T12:22:06.818Z,100602.73
2023-05-24T12:24:36.956Z,100603.55
2023-05-24T12:27:06.797Z,100608.36
2023-05-24T12:29:37.118Z,100605.02
2023-05-24T12:32:11.206Z,100607.09
2023-05-24T12:34:42.197Z,100606.19
2023-05-24T12:37:14.785Z,100601.67
2023-05-24T12:39:46.496Z,100601.14
2023-05-24T12:42:14.844Z,100605.82
2023-05-24T12:44:44.517Z,100607.39
2023-05-24T12:47:12.921Z,100602.80
2023-05-24T12:49:42.871Z,100609.83
2023-05-24T12:52:12.420Z,100607.70
2023-05-24T12:54:41.162Z,100617.17
2023-05-24T12:57:09.925Z,100626.50
2023-05-24T12:59:38.230Z,100659.02
2023-05-24T13:02:07.258Z,100695.40
2023-05-24T13:04:35.812Z,100695.83
2023-05-24T13:07:04.614Z,100702.45
2023-05-24T13:09:33.617Z,100678.51
2023-05-24T13:12:02.383Z,100670.98
2023-05-24T13:14:31.038Z,100662.55
2023-05-24T13:16:59.672Z,100621.39
2023-05-24T13:19:28.184Z,100620.86
2023-05-24T13:21:56.590Z,100622.45
2023-05-24T13:24:24.993Z,100620.98
2023-05-24T13:26:54.824Z,100616.66
2023-05-24T13:31:55.617Z,100610.01
2023-05-24T13:34:25.120Z,100608.25
2023-05-24T13:36:54.176Z,100612.71
2023-05-24T13:39:23.140Z,100608.97
2023-05-24T13:41:51.582Z,100625.83
2023-05-24T13:44:20.000Z,100633.00
2023-05-24T13:46:48.656Z,100633.55
2023-05-24T13:49:17.047Z,100637.44
2023-05-24T13:51:46.367Z,100637.05
2023-05-24T13:54:14.791Z,100634.05
2023-05-24T13:56:44.152Z,100633.23
2023-05-24T13:59:12.902Z,100634.00
2023-05-24T14:01:41.844Z,100623.41
2023-05-24T14:04:10.227Z,100619.75
2023-05-24T14:06:38.608Z,100619.80
2023-05-24T14:09:07.900Z,100624.38
2023-05-24T14:11:36.760Z,100623.92
2023-05-24T14:16:37.021Z,100631.59
2023-05-24T14:19:05.779Z,100633.38
2023-05-24T14:21:37.459Z,100634.36
2023-05-24T14:24:05.816Z,100639.10
2023-05-24T14:26:34.322Z,100638.30
2023-05-24T14:29:02.637Z,100636.23
2023-05-24T14:31:31.018Z,100632.19
2023-05-24T14:33:59.806Z,100634.77
2023-05-24T14:36:28.215Z,100631.75
2023-05-24T14:38:56.522Z,100630.96
2023-05-24T14:41:25.658Z,100636.05
2023-05-24T14:43:53.933Z,100636.86
2023-05-24T14:46:22.369Z,100640.31
2023-05-24T14:48:51.306Z,100649.30
2023-05-24T14:51:19.888Z,100649.71
2023-05-24T14:53:48.450Z,100650.45
2023-05-24T14:56:17.008Z,100655.95
2023-05-24T14:58:45.530Z,100651.70
2023-05-24T15:01:14.104Z,100653.98
2023-05-24T15:03:42.622Z,100658.05
2023-05-24T15:06:11.061Z,100656.38
2023-05-24T15:08:39.829Z,100658.95
2023-05-24T15:11:08.235Z,100663.27
2023-05-24T15:13:37.697Z,100668.66
2023-05-24T15:16:06.575Z,100666.85
2023-05-24T15:18:34.989Z,100670.42
2023-05-24T15:21:03.492Z,100670.52
2023-05-24T15:23:32.018Z,100665.83
2023-05-24T15:26:01.501Z,100666.65
2023-05-24T15:28:30.062Z,100666.52
2023-05-24T15:30:59.148Z,100665.09
2023-05-24T15:33:28.851Z,100665.22
2023-05-24T15:35:57.862Z,100671.83
2023-05-24T15:38:26.216Z,100674.77
2023-05-24T15:40:54.927Z,100681.16
2023-05-24T15:43:23.286Z,100683.55
2023-05-24T15:45:51.630Z,100686.10
2023-05-24T15:48:20.037Z,100687.66
2023-05-24T15:51:25.671Z,100691.26
2023-05-24T15:53:37.359Z,100693.84
2023-05-24T15:56:06.936Z,100696.91
2023-05-24T15:58:35.449Z,100705.20
2023-05-24T16:01:03.911Z,100717.98
2023-05-24T16:03:32.503Z,100725.43
2023-05-24T16:06:01.013Z,100733.62
2023-05-24T16:08:29.580Z,100731.77
2023-05-24T16:10:58.523Z,100729.81
2023-05-24T16:13:26.955Z,100727.79
2023-05-24T16:15:55.383Z,100732.27
2023-05-24T16:18:25.052Z,100731.15
2023-05-24T16:20:53.466Z,100731.71
2023-05-24T16:23:22.468Z,100736.88
2023-05-24T16:25:51.053Z,100734.67
2023-05-24T16:28:23.119Z,100736.52
2023-05-24T16:30:54.824Z,100735.36
2023-05-24T16:33:23.307Z,100739.38
2023-05-24T16:35:55.133Z,100742.05
2023-05-24T16:38:23.964Z,100744.36
2023-05-24T16:40:53.435Z,100746.22
2023-05-24T16:43:22.024Z,100751.60
2023-05-24T16:45:50.884Z,100753.73
2023-05-24T16:48:20.742Z,100759.14
2023-05-24T16:50:50.959Z,100757.89
2023-05-24T16:53:22.217Z,100757.42
2023-05-24T16:55:53.230Z,100759.92
2023-05-24T16:58:22.563Z,100764.27
2023-05-24T17:00:53.474Z,100766.27
2023-05-24T17:03:26.958Z,100760.79
2023-05-24T17:05:56.896Z,100767.61
2023-05-24T17:08:26.820Z,100770.98
2023-05-24T17:10:56.376Z,100766.98
2023-05-24T17:13:26.710Z,100767.06
2023-05-24T17:15:55.409Z,100766.86
2023-05-24T17:18:27.550Z,100771.41
2023-05-24T17:20:58.049Z,100772.79
2023-05-24T17:23:27.570Z,100773.42
2023-05-24T17:25:56.320Z,100771.02
2023-05-24T17:28:26.849Z,100770.22
2023-05-24T17:30:55.608Z,100772.20
2023-05-24T17:33:24.895Z,100774.41
2023-05-24T17:35:55.710Z,100784.58
2023-05-24T17:38:24.308Z,100782.14
2023-05-24T17:40:56.217Z,100784.76
2023-05-24T17:43:28.181Z,100785.91
2023-05-24T17:46:02.387Z,100778.02
2023-05-24T17:48:31.347Z,100779.73
2023-05-24T17:51:00.824Z,100779.92
2023-05-24T17:53:31.934Z,100782.38
2023-05-24T17:56:00.937Z,100785.70
2023-05-24T17:58:32.166Z,100789.67
2023-05-24T18:01:00.686Z,100798.67
2023-05-24T18:03:29.244Z,100802.40
2023-05-24T18:05:57.561Z,100808.36
2023-05-24T18:08:26.076Z,100810.48
2023-05-24T18:10:54.751Z,100811.77
2023-05-24T18:13:23.188Z,100816.27
2023-05-24T18:15:52.295Z,100821.15
2023-05-24T18:18:21.020Z,100825.59
2023-05-24T18:20:51.323Z,100827.09
2023-05-24T18:23:21.295Z,100835.50
2023-05-24T18:25:51.865Z,100842.30
2023-05-24T18:28:30.127Z,100846.16
2023-05-24T18:30:58.484Z,100851.61
2023-05-24T18:33:26.901Z,100856.10
2023-05-24T18:35:55.519Z,100857.78
2023-05-24T18:38:23.990Z,100863.70
2023-05-24T18:40:52.587Z,100869.38
2023-05-24T18:43:21.196Z,100879.10
2023-05-24T18:45:52.067Z,100881.26
2023-05-24T18:48:21.021Z,100884.23
2023-05-24T18:50:53.159Z,100889.34
2023-05-24T18:53:21.782Z,100893.05
2023-05-24T18:55:53.932Z,100894.21
2023-05-24T18:58:22.624Z,100901.20
2023-05-24T19:00:51.489Z,100905.23
2023-05-24T19:03:21.470Z,100904.27
2023-05-24T19:05:52.010Z,100906.27
2023-05-24T19:08:22.056Z,100908.61
2023-05-24T19:10:51.125Z,100910.06
2023-05-24T19:13:19.863Z,100914.52
2023-05-24T19:15:48.398Z,100912.52
2023-05-24T19:18:19.172Z,100915.22
2023-05-24T19:20:48.027Z,100912.30
2023-05-24T19:23:17.011Z,100916.23
2023-05-24T19:25:49.403Z,100915.95
2023-05-24T19:28:20.560Z,100919.11
2023-05-24T19:30:49.060Z,100919.49
2023-05-24T19:33:17.704Z,100920.39
2023-05-24T19:35:46.508Z,100925.02
2023-05-24T19:38:17.208Z,100927.87
2023-05-24T19:40:46.508Z,100932.27
2023-05-24T19:43:14.893Z,100940.41
2023-05-24T19:45:43.589Z,100948.05
2023-05-24T19:48:12.361Z,100947.52
2023-05-24T19:50:40.778Z,100950.67
2023-05-24T19:53:09.318Z,100948.90
2023-05-24T19:55:37.790Z,100949.73
2023-05-24T19:58:06.462Z,100946.15
2023-05-24T20:00:35.071Z,100948.27
2023-05-24T20:03:03.760Z,100951.00
2023-05-24T20:05:32.439Z,100954.99
2023-05-24T20:08:01.002Z,100954.84
2023-05-24T20:10:31.263Z,100954.13
2023-05-24T20:12:59.728Z,100946.95
2023-05-24T20:15:28.230Z,100949.00
2023-05-24T20:17:56.644Z,100954.41
2023-05-24T20:20:25.622Z,100954.40
2023-05-24T20:22:54.173Z,100954.20
2023-05-24T20:25:22.569Z,100958.51
2023-05-24T20:27:51.186Z,100959.52
2023-05-24T20:30:19.757Z,100963.75
2023-05-24T20:32:48.824Z,100966.16
2023-05-24T20:35:17.462Z,100966.73
2023-05-24T20:37:45.882Z,100966.70
2023-05-24T20:40:15.394Z,100971.05
2023-05-24T20:42:43.818Z,100971.43
2023-05-24T20:45:12.906Z,100966.65
2023-05-24T20:47:41.430Z,100967.38
2023-05-24T20:50:10.393Z,100968.29
2023-05-24T20:52:38.838Z,100975.85
2023-05-24T20:55:08.508Z,100980.70
2023-05-24T20:57:36.897Z,100982.31
2023-05-24T21:00:08.325Z,100982.42
2023-05-24T21:02:36.929Z,100979.66
2023-05-24T21:05:06.540Z,100979.12
2023-05-24T21:07:37.931Z,100979.40
2023-05-24T21:10:08.777Z,100983.70
2023-05-24T21:12:37.242Z,100984.34
2023-05-24T21:15:07.452Z,100985.14
2023-05-24T21:17:36.002Z,100985.34
2023-05-24T21:20:05.480Z,100988.48
2023-05-24T21:22:33.918Z,100991.98
2023-05-24T21:25:02.378Z,100996.21
2023-05-24T21:27:30.812Z,100997.96
2023-05-24T21:29:59.282Z,100994.87
2023-05-24T21:32:27.782Z,100994.73
2023-05-24T21:34:56.200Z,100994.30
2023-05-24T21:37:24.773Z,100995.29
2023-05-24T21:39:53.573Z,100995.66
2023-05-24T21:42:22.033Z,101003.77
2023-05-24T21:44:50.444Z,101002.15
2023-05-24T21:47:18.766Z,101000.81
2023-05-24T21:49:47.144Z,100997.46
2023-05-24T21:52:15.528Z,101000.75
2023-05-24T21:54:43.997Z,101002.94
2023-05-24T21:57:12.283Z,101003.42
2023-05-24T21:59:40.776Z,101000.82
2023-05-24T22:02:09.396Z,101004.58
2023-05-24T22:04:37.948Z,101005.98
2023-05-24T22:07:06.351Z,101007.69
2023-05-24T22:09:34.765Z,101012.01
2023-05-24T22:12:03.425Z,101017.23
2023-05-24T22:14:31.805Z,101015.33
2023-05-24T22:17:00.386Z,101019.14
2023-05-24T22:19:39.501Z,101018.27
2023-05-24T22:22:09.722Z,101022.20
2023-05-24T22:24:38.112Z,101023.45
2023-05-24T22:27:09.002Z,101025.31
2023-05-24T22:29:37.299Z,101027.52
2023-05-24T22:32:06.250Z,101020.90
2023-05-24T22:34:34.678Z,101019.10
2023-05-24T22:37:03.118Z,101015.52
2023-05-24T22:39:31.536Z,101015.55
2023-05-24T22:42:00.922Z,101019.17
2023-05-24T22:44:29.314Z,101022.96
2023-05-24T22:46:57.655Z,101025.31
2023-05-24T22:49:28.841Z,101022.20
2023-05-24T22:51:57.265Z,101020.16
2023-05-24T22:54:25.853Z,101022.46
2023-05-24T22:56:54.250Z,101021.97
2023-05-24T22:59:22.793Z,101023.29
2023-05-24T23:01:51.820Z,101021.83
2023-05-24T23:04:21.850Z,101020.95
2023-05-24T23:06:51.701Z,101030.85
2023-05-24T23:09:33.201Z,101034.30
2023-05-24T23:12:06.547Z,101035.45
2023-05-24T23:14:37.747Z,101033.59
2023-05-24T23:17:06.500Z,101036.55
2023-05-24T23:19:41.518Z,101036.61
2023-05-24T23:22:11.240Z,101035.72
2023-05-24T23:24:41.338Z,101034.21
2023-05-24T23:27:09.869Z,101033.20
2023-05-24T23:29:38.575Z,101034.65
2023-05-24T23:32:08.546Z,101036.45
2023-05-24T23:34:36.937Z,101038.98
2023-05-24T23:37:05.808Z,101044.80
2023-05-24T23:39:34.351Z,101049.41
2023-05-24T23:42:03.077Z,101049.88
2023-05-24T23:44:31.634Z,101047.55
2023-05-24T23:47:01.325Z,101041.63
2023-05-24T23:49:30.044Z,101043.98
2023-05-24T23:51:58.445Z,101047.38
2023-05-24T23:54:26.821Z,101047.36
2023-05-24T23:56:55.237Z,101049.32
2023-05-24T23:59:23.591Z,101052.64
